As Valentia — A8SO8 — position and weather

sailwx.info

Track history (hours):
 
Tides and Currents Weather Stations Pressure Air Temp Water Temp Dewpoint Dewpoint Depression Visibility Wind Speed Wind Dir Waves Ship Positions

As Valentia

Last reported at 2014-Oct-31 01:25 UTC. Time now 2014-Oct-31 09:59 UTC.
Position N 30°16' E 121°56'.

Length 190 m; draft 6.7 m.

Type: Cargo ship. MMSI: 636091770.

Date/timePositionNaut miles runAvg speedWind from/ knotsBaromVisibWave heightAir tempDewpointWater temp
2014-Oct-31 01:25N 30°16' E 121°56'7 5.2
2014-Oct-31 00:07N 30°18' E 121°49'7 2.5
2014-Oct-30 21:13N 30°23' E 121°54'1910.5
2014-Oct-30 19:23N 30°22' E 122°16'1010.3
2014-Oct-30 18:24N 30°23' E 122°28'10 9.4
2014-Oct-30 17:23N 30°22' E 122°39'10 9.4
2014-Oct-30 16:18N 30°21' E 122°51'387 7.9
2014-Oct-28 15:06N 24°45' E 119°14'5 7.4
2014-Oct-28 14:28N 24°41' E 119°12'125 5.7
2014-Oct-27 16:33N 22°45' E 120°02'9 9.5
2014-Oct-27 15:33N 22°38' E 120°09'9 8.6
2014-Oct-27 14:33N 22°33' E 120°17'2 0.1
2014-Oct-26 06:33N 22°33' E 120°18'3 2.6
2014-Oct-26 05:25N 22°31' E 120°16'0 0.0
2014-Oct-26 04:31N 22°31' E 120°16'0 0.0
2014-Oct-26 03:31N 22°31' E 120°16'0 0.0
2014-Oct-26 02:31N 22°31' E 120°16'0 0.0
2014-Oct-26 01:19N 22°31' E 120°16'0 0.2
2014-Oct-26 00:31N 22°31' E 120°16'0 0.1
2014-Oct-25 23:31N 22°31' E 120°16'0 0.0
2014-Oct-25 22:31N 22°31' E 120°16'0 0.1
2014-Oct-25 21:31N 22°31' E 120°16'0 0.0
2014-Oct-25 20:31N 22°31' E 120°16'0 0.0
2014-Oct-25 19:07N 22°31' E 120°16'0 0.0
2014-Oct-25 18:31N 22°31' E 120°16'0 0.0
2014-Oct-25 17:31N 22°31' E 120°16'0 0.0
2014-Oct-25 16:31N 22°31' E 120°16'0 0.1
2014-Oct-25 15:19N 22°31' E 120°16'0 0.1
2014-Oct-25 14:31N 22°31' E 120°16'0 0.1
2014-Oct-25 13:31N 22°31' E 120°16'0 0.0
2014-Oct-25 12:31N 22°31' E 120°16'0 0.0
2014-Oct-25 11:31N 22°31' E 120°16'0 0.0
2014-Oct-25 10:31N 22°31' E 120°16'0 0.0
2014-Oct-25 09:31N 22°31' E 120°16'0 0.0
2014-Oct-25 08:19N 22°31' E 120°16'0 0.0
2014-Oct-25 07:31N 22°31' E 120°16'0 0.0
2014-Oct-25 06:31N 22°31' E 120°16'0 0.1
2014-Oct-25 05:25N 22°31' E 120°16'0 0.1
2014-Oct-25 04:31N 22°31' E 120°16'1 0.7
2014-Oct-25 03:34N 22°30' E 120°16'24911.6
2014-Oct-24 06:00N 18°24' E 119°36'   050 / 211010.010.8 2.028.025.3
2014-Oct-21 08:00N 04°24' E 119°36'   010 / 151009.0 5.4 30.027.429.0
Track history (hours):
 
Tides and Currents Weather Stations Pressure Air Temp Water Temp Dewpoint Dewpoint Depression Visibility Wind Speed Wind Dir Waves Ship Positions

As Valentia

Last reported at 2014-Oct-31 01:25 UTC. Time now 2014-Oct-31 09:59 UTC.
Position N 30°16' E 121°56'.

Length 190 m; draft 6.7 m.

Type: Cargo ship. MMSI: 636091770.

Date/timePositionNaut miles runAvg speedWind from/ knotsBaromVisibWave heightAir tempDewpointWater temp
2014-Oct-31 01:25N 30°16' E 121°56'7 5.2
2014-Oct-31 00:07N 30°18' E 121°49'7 2.5
2014-Oct-30 21:13N 30°23' E 121°54'1910.5
2014-Oct-30 19:23N 30°22' E 122°16'1010.3
2014-Oct-30 18:24N 30°23' E 122°28'10 9.4
2014-Oct-30 17:23N 30°22' E 122°39'10 9.4
2014-Oct-30 16:18N 30°21' E 122°51'387 7.9
2014-Oct-28 15:06N 24°45' E 119°14'5 7.4
2014-Oct-28 14:28N 24°41' E 119°12'125 5.7
2014-Oct-27 16:33N 22°45' E 120°02'9 9.5
2014-Oct-27 15:33N 22°38' E 120°09'9 8.6
2014-Oct-27 14:33N 22°33' E 120°17'2 0.1
2014-Oct-26 06:33N 22°33' E 120°18'3 2.6
2014-Oct-26 05:25N 22°31' E 120°16'0 0.0
2014-Oct-26 04:31N 22°31' E 120°16'0 0.0
2014-Oct-26 03:31N 22°31' E 120°16'0 0.0
2014-Oct-26 02:31N 22°31' E 120°16'0 0.0
2014-Oct-26 01:19N 22°31' E 120°16'0 0.2
2014-Oct-26 00:31N 22°31' E 120°16'0 0.1
2014-Oct-25 23:31N 22°31' E 120°16'0 0.0
2014-Oct-25 22:31N 22°31' E 120°16'0 0.1
2014-Oct-25 21:31N 22°31' E 120°16'0 0.0
2014-Oct-25 20:31N 22°31' E 120°16'0 0.0
2014-Oct-25 19:07N 22°31' E 120°16'0 0.0
2014-Oct-25 18:31N 22°31' E 120°16'0 0.0
2014-Oct-25 17:31N 22°31' E 120°16'0 0.0
2014-Oct-25 16:31N 22°31' E 120°16'0 0.1
2014-Oct-25 15:19N 22°31' E 120°16'0 0.1
2014-Oct-25 14:31N 22°31' E 120°16'0 0.1
2014-Oct-25 13:31N 22°31' E 120°16'0 0.0
2014-Oct-25 12:31N 22°31' E 120°16'0 0.0
2014-Oct-25 11:31N 22°31' E 120°16'0 0.0
2014-Oct-25 10:31N 22°31' E 120°16'0 0.0
2014-Oct-25 09:31N 22°31' E 120°16'0 0.0
2014-Oct-25 08:19N 22°31' E 120°16'0 0.0
2014-Oct-25 07:31N 22°31' E 120°16'0 0.0
2014-Oct-25 06:31N 22°31' E 120°16'0 0.1
2014-Oct-25 05:25N 22°31' E 120°16'0 0.1
2014-Oct-25 04:31N 22°31' E 120°16'1 0.7
2014-Oct-25 03:34N 22°30' E 120°16'24911.6
2014-Oct-24 06:00N 18°24' E 119°36'   050 / 211010.010.8 2.028.025.3
2014-Oct-21 08:00N 04°24' E 119°36'   010 / 151009.0 5.4 30.027.429.0

Dump ship's entire track history